sensor_id;sensor_type;location;lat;lon;timestamp;P1;durP1;ratioP1;P2;durP2;ratioP2
11576;SDS011;5844;51.496;6.788;2023-05-07T00:00:33;0.10;;;0.10;;
11576;SDS011;5844;51.496;6.788;2023-05-07T00:02:59;0.10;;;0.10;;
11576;SDS011;5844;51.496;6.788;2023-05-07T00:05:25;0.10;;;0.10;;
11576;SDS011;5844;51.496;6.788;2023-05-07T00:07:51;0.10;;;0.10;;
11576;SDS011;5844;51.496;6.788;2023-05-07T00:10:17;0.10;;;0.10;;
11576;SDS011;5844;51.496;6.788;2023-05-07T00:12:44;0.00;;;0.00;;
11576;SDS011;5844;51.496;6.788;2023-05-07T00:15:09;0.00;;;0.00;;
11576;SDS011;5844;51.496;6.788;2023-05-07T00:17:35;0.10;;;0.10;;
11576;SDS011;5844;51.496;6.788;2023-05-07T00:20:02;0.10;;;0.10;;
11576;SDS011;5844;51.496;6.788;2023-05-07T00:22:29;0.10;;;0.10;;
11576;SDS011;5844;51.496;6.788;2023-05-07T00:24:56;0.00;;;0.00;;
11576;SDS011;5844;51.496;6.788;2023-05-07T00:27:21;0.10;;;0.10;;
11576;SDS011;5844;51.496;6.788;2023-05-07T00:29:47;0.10;;;0.10;;
11576;SDS011;5844;51.496;6.788;2023-05-07T00:32:13;0.10;;;0.10;;
11576;SDS011;5844;51.496;6.788;2023-05-07T00:34:39;0.10;;;0.10;;
11576;SDS011;5844;51.496;6.788;2023-05-07T00:37:05;0.10;;;0.10;;
11576;SDS011;5844;51.496;6.788;2023-05-07T00:39:32;0.10;;;0.10;;
11576;SDS011;5844;51.496;6.788;2023-05-07T00:41:58;0.10;;;0.10;;
11576;SDS011;5844;51.496;6.788;2023-05-07T00:44:25;0.00;;;0.00;;
11576;SDS011;5844;51.496;6.788;2023-05-07T00:46:51;0.10;;;0.10;;
11576;SDS011;5844;51.496;6.788;2023-05-07T00:49:18;0.10;;;0.10;;
11576;SDS011;5844;51.496;6.788;2023-05-07T00:51:45;0.10;;;0.10;;
11576;SDS011;5844;51.496;6.788;2023-05-07T00:54:11;0.10;;;0.10;;
11576;SDS011;5844;51.496;6.788;2023-05-07T00:56:38;0.00;;;0.00;;
11576;SDS011;5844;51.496;6.788;2023-05-07T00:59:05;0.10;;;0.10;;
11576;SDS011;5844;51.496;6.788;2023-05-07T01:01:31;0.10;;;0.10;;
11576;SDS011;5844;51.496;6.788;2023-05-07T01:03:57;0.10;;;0.10;;
11576;SDS011;5844;51.496;6.788;2023-05-07T01:06:23;0.10;;;0.10;;
11576;SDS011;5844;51.496;6.788;2023-05-07T01:08:50;0.07;;;0.07;;
11576;SDS011;5844;51.496;6.788;2023-05-07T01:11:17;0.10;;;0.10;;
11576;SDS011;5844;51.496;6.788;2023-05-07T01:13:45;0.03;;;0.03;;
11576;SDS011;5844;51.496;6.788;2023-05-07T01:16:12;0.10;;;0.10;;
11576;SDS011;5844;51.496;6.788;2023-05-07T01:18:38;0.10;;;0.10;;
11576;SDS011;5844;51.496;6.788;2023-05-07T01:21:04;0.10;;;0.10;;
11576;SDS011;5844;51.496;6.788;2023-05-07T01:23:30;0.10;;;0.10;;
11576;SDS011;5844;51.496;6.788;2023-05-07T01:25:56;0.10;;;0.10;;
11576;SDS011;5844;51.496;6.788;2023-05-07T01:28:22;0.10;;;0.10;;
11576;SDS011;5844;51.496;6.788;2023-05-07T01:30:49;0.07;;;0.07;;
11576;SDS011;5844;51.496;6.788;2023-05-07T01:33:19;0.10;;;0.10;;
11576;SDS011;5844;51.496;6.788;2023-05-07T01:35:50;0.00;;;0.00;;
11576;SDS011;5844;51.496;6.788;2023-05-07T01:38:18;0.10;;;0.10;;
11576;SDS011;5844;51.496;6.788;2023-05-07T01:40:45;0.10;;;0.10;;
11576;SDS011;5844;51.496;6.788;2023-05-07T01:43:11;0.00;;;0.00;;
11576;SDS011;5844;51.496;6.788;2023-05-07T01:45:36;0.10;;;0.10;;
11576;SDS011;5844;51.496;6.788;2023-05-07T01:48:05;0.10;;;0.10;;
11576;SDS011;5844;51.496;6.788;2023-05-07T01:50:33;0.00;;;0.00;;
11576;SDS011;5844;51.496;6.788;2023-05-07T01:52:59;0.10;;;0.10;;
11576;SDS011;5844;51.496;6.788;2023-05-07T01:55:27;0.10;;;0.10;;
11576;SDS011;5844;51.496;6.788;2023-05-07T01:57:53;0.10;;;0.10;;
11576;SDS011;5844;51.496;6.788;2023-05-07T02:00:18;0.00;;;0.00;;
11576;SDS011;5844;51.496;6.788;2023-05-07T02:02:44;0.10;;;0.10;;
11576;SDS011;5844;51.496;6.788;2023-05-07T02:05:10;0.10;;;0.10;;
11576;SDS011;5844;51.496;6.788;2023-05-07T02:07:36;0.10;;;0.10;;
11576;SDS011;5844;51.496;6.788;2023-05-07T02:10:01;0.10;;;0.10;;
11576;SDS011;5844;51.496;6.788;2023-05-07T02:12:27;0.10;;;0.10;;
11576;SDS011;5844;51.496;6.788;2023-05-07T02:14:53;0.10;;;0.10;;
11576;SDS011;5844;51.496;6.788;2023-05-07T02:17:19;0.10;;;0.10;;
11576;SDS011;5844;51.496;6.788;2023-05-07T02:19:45;0.00;;;0.00;;
11576;SDS011;5844;51.496;6.788;2023-05-07T02:22:10;0.10;;;0.10;;
11576;SDS011;5844;51.496;6.788;2023-05-07T02:24:36;0.10;;;0.10;;
11576;SDS011;5844;51.496;6.788;2023-05-07T02:27:01;0.10;;;0.10;;
11576;SDS011;5844;51.496;6.788;2023-05-07T02:29:28;0.10;;;0.10;;
11576;SDS011;5844;51.496;6.788;2023-05-07T02:31:54;0.10;;;0.10;;
11576;SDS011;5844;51.496;6.788;2023-05-07T02:34:20;0.10;;;0.10;;
11576;SDS011;5844;51.496;6.788;2023-05-07T02:36:46;0.10;;;0.10;;
11576;SDS011;5844;51.496;6.788;2023-05-07T02:39:12;0.10;;;0.10;;
11576;SDS011;5844;51.496;6.788;2023-05-07T02:41:38;0.10;;;0.10;;
11576;SDS011;5844;51.496;6.788;2023-05-07T02:44:04;0.10;;;0.10;;
11576;SDS011;5844;51.496;6.788;2023-05-07T02:46:30;0.10;;;0.10;;
11576;SDS011;5844;51.496;6.788;2023-05-07T02:48:56;0.10;;;0.10;;
11576;SDS011;5844;51.496;6.788;2023-05-07T02:51:21;0.10;;;0.10;;
11576;SDS011;5844;51.496;6.788;2023-05-07T02:53:48;0.10;;;0.10;;
11576;SDS011;5844;51.496;6.788;2023-05-07T02:56:14;0.10;;;0.10;;
11576;SDS011;5844;51.496;6.788;2023-05-07T02:58:39;0.10;;;0.10;;
11576;SDS011;5844;51.496;6.788;2023-05-07T03:01:07;0.10;;;0.10;;
11576;SDS011;5844;51.496;6.788;2023-05-07T03:03:33;0.10;;;0.10;;
11576;SDS011;5844;51.496;6.788;2023-05-07T03:05:59;0.10;;;0.10;;
11576;SDS011;5844;51.496;6.788;2023-05-07T03:08:24;0.10;;;0.10;;
11576;SDS011;5844;51.496;6.788;2023-05-07T03:10:50;0.10;;;0.10;;
11576;SDS011;5844;51.496;6.788;2023-05-07T03:13:16;0.10;;;0.10;;
11576;SDS011;5844;51.496;6.788;2023-05-07T03:15:42;0.10;;;0.10;;
11576;SDS011;5844;51.496;6.788;2023-05-07T03:18:07;0.10;;;0.10;;
11576;SDS011;5844;51.496;6.788;2023-05-07T03:20:33;0.10;;;0.10;;
11576;SDS011;5844;51.496;6.788;2023-05-07T03:22:59;0.10;;;0.10;;
11576;SDS011;5844;51.496;6.788;2023-05-07T03:25:25;0.00;;;0.00;;
11576;SDS011;5844;51.496;6.788;2023-05-07T03:27:50;0.00;;;0.00;;
11576;SDS011;5844;51.496;6.788;2023-05-07T03:30:16;0.10;;;0.10;;
11576;SDS011;5844;51.496;6.788;2023-05-07T03:32:42;0.10;;;0.10;;
11576;SDS011;5844;51.496;6.788;2023-05-07T03:35:08;0.00;;;0.00;;
11576;SDS011;5844;51.496;6.788;2023-05-07T03:37:33;0.03;;;0.03;;
11576;SDS011;5844;51.496;6.788;2023-05-07T03:39:59;0.10;;;0.10;;
11576;SDS011;5844;51.496;6.788;2023-05-07T03:42:25;0.10;;;0.10;;
11576;SDS011;5844;51.496;6.788;2023-05-07T03:44:50;0.10;;;0.10;;
11576;SDS011;5844;51.496;6.788;2023-05-07T03:47:16;0.10;;;0.10;;
11576;SDS011;5844;51.496;6.788;2023-05-07T03:52:51;0.00;;;0.00;;
11576;SDS011;5844;51.496;6.788;2023-05-07T03:55:17;0.10;;;0.10;;
11576;SDS011;5844;51.496;6.788;2023-05-07T03:57:42;0.10;;;0.10;;
11576;SDS011;5844;51.496;6.788;2023-05-07T04:00:08;0.10;;;0.10;;
11576;SDS011;5844;51.496;6.788;2023-05-07T04:02:34;0.10;;;0.10;;
11576;SDS011;5844;51.496;6.788;2023-05-07T04:05:00;0.10;;;0.10;;
11576;SDS011;5844;51.496;6.788;2023-05-07T04:07:26;0.10;;;0.10;;
11576;SDS011;5844;51.496;6.788;2023-05-07T04:09:51;0.10;;;0.10;;
11576;SDS011;5844;51.496;6.788;2023-05-07T04:12:17;0.10;;;0.10;;
11576;SDS011;5844;51.496;6.788;2023-05-07T04:14:42;0.10;;;0.10;;
11576;SDS011;5844;51.496;6.788;2023-05-07T04:17:08;0.10;;;0.10;;
11576;SDS011;5844;51.496;6.788;2023-05-07T04:19:35;0.10;;;0.10;;
11576;SDS011;5844;51.496;6.788;2023-05-07T04:22:01;0.10;;;0.10;;
11576;SDS011;5844;51.496;6.788;2023-05-07T04:24:27;0.10;;;0.10;;
11576;SDS011;5844;51.496;6.788;2023-05-07T04:26:55;0.10;;;0.10;;
11576;SDS011;5844;51.496;6.788;2023-05-07T04:29:21;0.00;;;0.00;;
11576;SDS011;5844;51.496;6.788;2023-05-07T04:31:47;0.03;;;0.03;;
11576;SDS011;5844;51.496;6.788;2023-05-07T04:34:12;0.10;;;0.10;;
11576;SDS011;5844;51.496;6.788;2023-05-07T04:36:39;0.10;;;0.10;;
11576;SDS011;5844;51.496;6.788;2023-05-07T04:39:04;0.10;;;0.10;;
11576;SDS011;5844;51.496;6.788;2023-05-07T04:41:30;0.10;;;0.10;;
11576;SDS011;5844;51.496;6.788;2023-05-07T04:43:56;0.10;;;0.10;;
11576;SDS011;5844;51.496;6.788;2023-05-07T04:46:23;0.10;;;0.10;;
11576;SDS011;5844;51.496;6.788;2023-05-07T04:48:49;0.10;;;0.10;;
11576;SDS011;5844;51.496;6.788;2023-05-07T04:51:15;0.00;;;0.00;;
11576;SDS011;5844;51.496;6.788;2023-05-07T04:53:41;0.10;;;0.10;;
11576;SDS011;5844;51.496;6.788;2023-05-07T04:56:08;0.10;;;0.10;;
11576;SDS011;5844;51.496;6.788;2023-05-07T04:58:34;0.10;;;0.10;;
11576;SDS011;5844;51.496;6.788;2023-05-07T05:00:59;0.10;;;0.10;;
11576;SDS011;5844;51.496;6.788;2023-05-07T05:03:25;0.10;;;0.10;;
11576;SDS011;5844;51.496;6.788;2023-05-07T05:05:51;0.10;;;0.10;;
11576;SDS011;5844;51.496;6.788;2023-05-07T05:08:17;0.00;;;0.00;;
11576;SDS011;5844;51.496;6.788;2023-05-07T05:10:43;0.00;;;0.00;;
11576;SDS011;5844;51.496;6.788;2023-05-07T05:13:09;0.00;;;0.00;;
11576;SDS011;5844;51.496;6.788;2023-05-07T05:15:37;0.10;;;0.10;;
11576;SDS011;5844;51.496;6.788;2023-05-07T05:18:03;0.10;;;0.10;;
11576;SDS011;5844;51.496;6.788;2023-05-07T05:20:29;0.10;;;0.10;;
11576;SDS011;5844;51.496;6.788;2023-05-07T05:22:54;0.10;;;0.10;;
11576;SDS011;5844;51.496;6.788;2023-05-07T05:25:20;0.10;;;0.10;;
11576;SDS011;5844;51.496;6.788;2023-05-07T05:27:45;0.10;;;0.10;;
11576;SDS011;5844;51.496;6.788;2023-05-07T05:30:11;0.10;;;0.10;;
11576;SDS011;5844;51.496;6.788;2023-05-07T05:32:37;0.00;;;0.00;;
11576;SDS011;5844;51.496;6.788;2023-05-07T05:35:03;0.10;;;0.10;;
11576;SDS011;5844;51.496;6.788;2023-05-07T05:37:29;0.10;;;0.10;;
11576;SDS011;5844;51.496;6.788;2023-05-07T05:39:56;0.00;;;0.00;;
11576;SDS011;5844;51.496;6.788;2023-05-07T05:42:22;0.10;;;0.10;;
11576;SDS011;5844;51.496;6.788;2023-05-07T05:44:48;0.10;;;0.10;;
11576;SDS011;5844;51.496;6.788;2023-05-07T05:47:13;0.10;;;0.10;;
11576;SDS011;5844;51.496;6.788;2023-05-07T05:49:39;0.00;;;0.00;;
11576;SDS011;5844;51.496;6.788;2023-05-07T05:52:05;0.10;;;0.10;;
11576;SDS011;5844;51.496;6.788;2023-05-07T05:54:30;0.00;;;0.00;;
11576;SDS011;5844;51.496;6.788;2023-05-07T05:56:56;0.00;;;0.00;;
11576;SDS011;5844;51.496;6.788;2023-05-07T05:59:22;0.10;;;0.10;;
11576;SDS011;5844;51.496;6.788;2023-05-07T06:01:48;0.10;;;0.10;;
11576;SDS011;5844;51.496;6.788;2023-05-07T06:04:13;0.10;;;0.10;;
11576;SDS011;5844;51.496;6.788;2023-05-07T06:06:39;0.10;;;0.10;;
11576;SDS011;5844;51.496;6.788;2023-05-07T06:09:05;0.10;;;0.10;;
11576;SDS011;5844;51.496;6.788;2023-05-07T06:11:31;0.10;;;0.10;;
11576;SDS011;5844;51.496;6.788;2023-05-07T06:13:57;0.10;;;0.10;;
11576;SDS011;5844;51.496;6.788;2023-05-07T06:16:24;0.10;;;0.10;;
11576;SDS011;5844;51.496;6.788;2023-05-07T06:18:50;0.10;;;0.10;;
11576;SDS011;5844;51.496;6.788;2023-05-07T06:21:15;0.03;;;0.03;;
11576;SDS011;5844;51.496;6.788;2023-05-07T06:23:41;0.10;;;0.10;;
11576;SDS011;5844;51.496;6.788;2023-05-07T06:26:07;0.10;;;0.10;;
11576;SDS011;5844;51.496;6.788;2023-05-07T06:28:32;0.10;;;0.10;;
11576;SDS011;5844;51.496;6.788;2023-05-07T06:31:17;0.10;;;0.10;;
11576;SDS011;5844;51.496;6.788;2023-05-07T06:33:49;0.10;;;0.10;;
11576;SDS011;5844;51.496;6.788;2023-05-07T06:36:14;0.10;;;0.10;;
11576;SDS011;5844;51.496;6.788;2023-05-07T06:38:40;0.10;;;0.10;;
11576;SDS011;5844;51.496;6.788;2023-05-07T06:41:08;0.10;;;0.10;;
11576;SDS011;5844;51.496;6.788;2023-05-07T06:43:34;0.10;;;0.10;;
11576;SDS011;5844;51.496;6.788;2023-05-07T06:46:00;0.10;;;0.10;;
11576;SDS011;5844;51.496;6.788;2023-05-07T06:48:26;0.10;;;0.10;;
11576;SDS011;5844;51.496;6.788;2023-05-07T06:50:52;0.10;;;0.10;;
11576;SDS011;5844;51.496;6.788;2023-05-07T06:53:18;0.10;;;0.10;;
11576;SDS011;5844;51.496;6.788;2023-05-07T06:55:43;0.00;;;0.00;;
11576;SDS011;5844;51.496;6.788;2023-05-07T06:58:09;0.10;;;0.10;;
11576;SDS011;5844;51.496;6.788;2023-05-07T07:00:34;0.10;;;0.10;;
11576;SDS011;5844;51.496;6.788;2023-05-07T07:03:00;0.10;;;0.10;;
11576;SDS011;5844;51.496;6.788;2023-05-07T07:05:26;0.10;;;0.10;;
11576;SDS011;5844;51.496;6.788;2023-05-07T07:07:51;0.10;;;0.10;;
11576;SDS011;5844;51.496;6.788;2023-05-07T07:10:20;0.10;;;0.10;;
11576;SDS011;5844;51.496;6.788;2023-05-07T07:12:46;0.00;;;0.00;;
11576;SDS011;5844;51.496;6.788;2023-05-07T07:15:11;0.10;;;0.10;;
11576;SDS011;5844;51.496;6.788;2023-05-07T07:17:38;0.10;;;0.10;;
11576;SDS011;5844;51.496;6.788;2023-05-07T07:20:03;0.10;;;0.10;;
11576;SDS011;5844;51.496;6.788;2023-05-07T07:22:30;0.05;;;0.05;;
11576;SDS011;5844;51.496;6.788;2023-05-07T07:24:55;0.10;;;0.10;;
11576;SDS011;5844;51.496;6.788;2023-05-07T07:27:21;0.10;;;0.10;;
11576;SDS011;5844;51.496;6.788;2023-05-07T07:29:47;0.10;;;0.10;;
11576;SDS011;5844;51.496;6.788;2023-05-07T07:32:12;0.10;;;0.10;;
11576;SDS011;5844;51.496;6.788;2023-05-07T07:34:38;0.10;;;0.10;;
11576;SDS011;5844;51.496;6.788;2023-05-07T07:37:03;0.10;;;0.10;;
11576;SDS011;5844;51.496;6.788;2023-05-07T07:39:31;0.10;;;0.10;;
11576;SDS011;5844;51.496;6.788;2023-05-07T07:41:57;0.00;;;0.00;;
11576;SDS011;5844;51.496;6.788;2023-05-07T07:44:23;0.10;;;0.10;;
11576;SDS011;5844;51.496;6.788;2023-05-07T07:46:48;0.05;;;0.05;;
11576;SDS011;5844;51.496;6.788;2023-05-07T07:49:15;0.10;;;0.10;;
11576;SDS011;5844;51.496;6.788;2023-05-07T07:51:41;0.00;;;0.00;;
11576;SDS011;5844;51.496;6.788;2023-05-07T07:54:07;0.00;;;0.00;;
11576;SDS011;5844;51.496;6.788;2023-05-07T07:56:33;0.10;;;0.10;;
11576;SDS011;5844;51.496;6.788;2023-05-07T07:58:59;0.10;;;0.10;;
11576;SDS011;5844;51.496;6.788;2023-05-07T08:01:25;0.10;;;0.10;;
11576;SDS011;5844;51.496;6.788;2023-05-07T08:03:51;0.10;;;0.10;;
11576;SDS011;5844;51.496;6.788;2023-05-07T08:06:17;0.10;;;0.10;;
11576;SDS011;5844;51.496;6.788;2023-05-07T08:08:43;0.00;;;0.00;;
11576;SDS011;5844;51.496;6.788;2023-05-07T08:11:09;0.10;;;0.10;;
11576;SDS011;5844;51.496;6.788;2023-05-07T08:13:35;0.00;;;0.00;;
11576;SDS011;5844;51.496;6.788;2023-05-07T08:16:03;0.10;;;0.10;;
11576;SDS011;5844;51.496;6.788;2023-05-07T08:18:30;0.10;;;0.10;;
11576;SDS011;5844;51.496;6.788;2023-05-07T08:20:55;0.10;;;0.10;;
11576;SDS011;5844;51.496;6.788;2023-05-07T08:23:21;0.10;;;0.10;;
11576;SDS011;5844;51.496;6.788;2023-05-07T08:25:47;0.10;;;0.10;;
11576;SDS011;5844;51.496;6.788;2023-05-07T08:28:14;0.00;;;0.00;;
11576;SDS011;5844;51.496;6.788;2023-05-07T08:30:40;0.00;;;0.00;;
11576;SDS011;5844;51.496;6.788;2023-05-07T08:33:06;0.10;;;0.10;;
11576;SDS011;5844;51.496;6.788;2023-05-07T08:35:33;0.10;;;0.10;;
11576;SDS011;5844;51.496;6.788;2023-05-07T08:37:58;0.10;;;0.10;;
11576;SDS011;5844;51.496;6.788;2023-05-07T08:40:24;0.10;;;0.10;;
11576;SDS011;5844;51.496;6.788;2023-05-07T08:42:52;0.10;;;0.10;;
11576;SDS011;5844;51.496;6.788;2023-05-07T08:45:18;0.05;;;0.05;;
11576;SDS011;5844;51.496;6.788;2023-05-07T08:47:59;0.10;;;0.10;;
11576;SDS011;5844;51.496;6.788;2023-05-07T08:50:27;0.10;;;0.10;;
11576;SDS011;5844;51.496;6.788;2023-05-07T08:52:53;0.10;;;0.10;;
11576;SDS011;5844;51.496;6.788;2023-05-07T08:55:18;0.10;;;0.10;;
11576;SDS011;5844;51.496;6.788;2023-05-07T08:57:45;0.10;;;0.10;;
11576;SDS011;5844;51.496;6.788;2023-05-07T09:00:12;0.10;;;0.10;;
11576;SDS011;5844;51.496;6.788;2023-05-07T09:02:38;0.10;;;0.10;;
11576;SDS011;5844;51.496;6.788;2023-05-07T09:05:03;0.10;;;0.10;;
11576;SDS011;5844;51.496;6.788;2023-05-07T09:07:30;0.10;;;0.10;;
11576;SDS011;5844;51.496;6.788;2023-05-07T09:09:56;0.10;;;0.10;;
11576;SDS011;5844;51.496;6.788;2023-05-07T09:12:22;0.10;;;0.10;;
11576;SDS011;5844;51.496;6.788;2023-05-07T09:14:49;0.10;;;0.10;;
11576;SDS011;5844;51.496;6.788;2023-05-07T09:17:17;0.10;;;0.10;;
11576;SDS011;5844;51.496;6.788;2023-05-07T09:19:46;0.00;;;0.00;;
11576;SDS011;5844;51.496;6.788;2023-05-07T09:22:12;0.10;;;0.10;;
11576;SDS011;5844;51.496;6.788;2023-05-07T09:24:38;0.20;;;0.20;;
11576;SDS011;5844;51.496;6.788;2023-05-07T09:27:05;0.10;;;0.10;;
11576;SDS011;5844;51.496;6.788;2023-05-07T09:29:31;0.10;;;0.10;;
11576;SDS011;5844;51.496;6.788;2023-05-07T09:32:07;0.20;;;0.20;;
11576;SDS011;5844;51.496;6.788;2023-05-07T09:34:33;0.15;;;0.15;;
11576;SDS011;5844;51.496;6.788;2023-05-07T09:37:03;0.20;;;0.20;;
11576;SDS011;5844;51.496;6.788;2023-05-07T09:39:47;0.17;;;0.17;;
11576;SDS011;5844;51.496;6.788;2023-05-07T09:42:13;0.20;;;0.20;;
11576;SDS011;5844;51.496;6.788;2023-05-07T09:44:45;0.20;;;0.20;;
11576;SDS011;5844;51.496;6.788;2023-05-07T09:47:12;0.10;;;0.10;;
11576;SDS011;5844;51.496;6.788;2023-05-07T09:49:43;0.20;;;0.20;;
11576;SDS011;5844;51.496;6.788;2023-05-07T09:52:13;0.28;;;0.28;;
11576;SDS011;5844;51.496;6.788;2023-05-07T09:54:39;0.25;;;0.25;;
11576;SDS011;5844;51.496;6.788;2023-05-07T09:57:08;0.20;;;0.20;;
11576;SDS011;5844;51.496;6.788;2023-05-07T09:59:36;0.10;;;0.10;;
11576;SDS011;5844;51.496;6.788;2023-05-07T10:02:03;0.20;;;0.20;;
11576;SDS011;5844;51.496;6.788;2023-05-07T10:04:29;0.20;;;0.20;;
11576;SDS011;5844;51.496;6.788;2023-05-07T10:06:56;0.28;;;0.28;;
11576;SDS011;5844;51.496;6.788;2023-05-07T10:09:23;0.20;;;0.20;;
11576;SDS011;5844;51.496;6.788;2023-05-07T10:11:51;0.30;;;0.30;;
11576;SDS011;5844;51.496;6.788;2023-05-07T10:14:17;0.30;;;0.30;;
11576;SDS011;5844;51.496;6.788;2023-05-07T10:16:44;0.40;;;0.40;;
11576;SDS011;5844;51.496;6.788;2023-05-07T10:19:10;0.30;;;0.30;;
11576;SDS011;5844;51.496;6.788;2023-05-07T10:21:36;0.30;;;0.30;;
11576;SDS011;5844;51.496;6.788;2023-05-07T10:24:04;0.30;;;0.30;;
11576;SDS011;5844;51.496;6.788;2023-05-07T10:26:38;0.40;;;0.40;;
11576;SDS011;5844;51.496;6.788;2023-05-07T10:29:11;0.30;;;0.30;;
11576;SDS011;5844;51.496;6.788;2023-05-07T10:34:10;0.30;;;0.30;;
11576;SDS011;5844;51.496;6.788;2023-05-07T10:36:38;0.30;;;0.30;;
11576;SDS011;5844;51.496;6.788;2023-05-07T10:39:04;0.30;;;0.30;;
11576;SDS011;5844;51.496;6.788;2023-05-07T10:41:30;0.35;;;0.35;;
11576;SDS011;5844;51.496;6.788;2023-05-07T10:43:56;0.40;;;0.40;;
11576;SDS011;5844;51.496;6.788;2023-05-07T10:46:22;0.30;;;0.30;;
11576;SDS011;5844;51.496;6.788;2023-05-07T10:51:26;0.40;;;0.40;;
11576;SDS011;5844;51.496;6.788;2023-05-07T10:56:37;0.30;;;0.30;;
11576;SDS011;5844;51.496;6.788;2023-05-07T11:02:04;0.30;;;0.30;;
11576;SDS011;5844;51.496;6.788;2023-05-07T11:04:32;0.30;;;0.30;;
11576;SDS011;5844;51.496;6.788;2023-05-07T11:15:06;0.38;;;0.38;;
11576;SDS011;5844;51.496;6.788;2023-05-07T11:17:33;0.30;;;0.30;;
11576;SDS011;5844;51.496;6.788;2023-05-07T11:20:00;0.30;;;0.30;;
11576;SDS011;5844;51.496;6.788;2023-05-07T11:24:59;0.30;;;0.30;;
11576;SDS011;5844;51.496;6.788;2023-05-07T11:27:26;0.40;;;0.40;;
11576;SDS011;5844;51.496;6.788;2023-05-07T11:29:52;0.40;;;0.40;;
11576;SDS011;5844;51.496;6.788;2023-05-07T11:34:53;0.30;;;0.30;;
11576;SDS011;5844;51.496;6.788;2023-05-07T11:37:19;0.30;;;0.30;;
11576;SDS011;5844;51.496;6.788;2023-05-07T11:39:46;0.30;;;0.30;;
11576;SDS011;5844;51.496;6.788;2023-05-07T11:42:25;0.32;;;0.32;;
11576;SDS011;5844;51.496;6.788;2023-05-07T11:45:02;0.40;;;0.40;;
11576;SDS011;5844;51.496;6.788;2023-05-07T11:47:32;0.40;;;0.40;;
11576;SDS011;5844;51.496;6.788;2023-05-07T11:50:03;0.60;;;0.60;;
11576;SDS011;5844;51.496;6.788;2023-05-07T11:52:30;0.47;;;0.47;;
11576;SDS011;5844;51.496;6.788;2023-05-07T11:54:56;0.50;;;0.50;;
11576;SDS011;5844;51.496;6.788;2023-05-07T11:57:23;0.35;;;0.35;;
11576;SDS011;5844;51.496;6.788;2023-05-07T11:59:53;0.47;;;0.47;;
11576;SDS011;5844;51.496;6.788;2023-05-07T12:02:22;0.45;;;0.45;;
11576;SDS011;5844;51.496;6.788;2023-05-07T12:04:52;0.30;;;0.30;;
11576;SDS011;5844;51.496;6.788;2023-05-07T12:07:18;0.50;;;0.50;;
11576;SDS011;5844;51.496;6.788;2023-05-07T12:09:44;0.45;;;0.45;;
11576;SDS011;5844;51.496;6.788;2023-05-07T12:12:11;0.40;;;0.40;;
11576;SDS011;5844;51.496;6.788;2023-05-07T12:14:40;0.45;;;0.45;;
11576;SDS011;5844;51.496;6.788;2023-05-07T12:17:07;0.40;;;0.40;;
11576;SDS011;5844;51.496;6.788;2023-05-07T12:19:34;0.40;;;0.40;;
11576;SDS011;5844;51.496;6.788;2023-05-07T12:22:02;0.40;;;0.40;;
11576;SDS011;5844;51.496;6.788;2023-05-07T12:24:28;0.40;;;0.40;;
11576;SDS011;5844;51.496;6.788;2023-05-07T12:26:53;0.47;;;0.47;;
11576;SDS011;5844;51.496;6.788;2023-05-07T12:29:21;0.35;;;0.35;;
11576;SDS011;5844;51.496;6.788;2023-05-07T12:31:47;0.40;;;0.40;;
11576;SDS011;5844;51.496;6.788;2023-05-07T12:34:14;0.38;;;0.38;;
11576;SDS011;5844;51.496;6.788;2023-05-07T12:36:40;0.30;;;0.30;;
11576;SDS011;5844;51.496;6.788;2023-05-07T12:39:07;0.40;;;0.40;;
11576;SDS011;5844;51.496;6.788;2023-05-07T12:41:54;0.30;;;0.30;;
11576;SDS011;5844;51.496;6.788;2023-05-07T12:44:39;0.30;;;0.30;;
11576;SDS011;5844;51.496;6.788;2023-05-07T12:47:04;0.30;;;0.30;;
11576;SDS011;5844;51.496;6.788;2023-05-07T12:49:30;0.32;;;0.32;;
11576;SDS011;5844;51.496;6.788;2023-05-07T12:51:56;0.40;;;0.40;;
11576;SDS011;5844;51.496;6.788;2023-05-07T12:54:28;0.40;;;0.40;;
11576;SDS011;5844;51.496;6.788;2023-05-07T12:57:02;0.40;;;0.40;;
11576;SDS011;5844;51.496;6.788;2023-05-07T12:59:33;0.30;;;0.30;;
11576;SDS011;5844;51.496;6.788;2023-05-07T13:02:00;0.30;;;0.30;;
11576;SDS011;5844;51.496;6.788;2023-05-07T13:04:26;0.32;;;0.32;;
11576;SDS011;5844;51.496;6.788;2023-05-07T13:06:51;0.25;;;0.25;;
11576;SDS011;5844;51.496;6.788;2023-05-07T13:09:17;0.30;;;0.30;;
11576;SDS011;5844;51.496;6.788;2023-05-07T13:11:42;0.30;;;0.30;;
11576;SDS011;5844;51.496;6.788;2023-05-07T13:14:08;0.32;;;0.32;;
11576;SDS011;5844;51.496;6.788;2023-05-07T13:16:34;0.30;;;0.30;;
11576;SDS011;5844;51.496;6.788;2023-05-07T13:18:59;0.30;;;0.30;;
11576;SDS011;5844;51.496;6.788;2023-05-07T13:21:25;0.30;;;0.30;;
11576;SDS011;5844;51.496;6.788;2023-05-07T13:23:51;0.20;;;0.20;;
11576;SDS011;5844;51.496;6.788;2023-05-07T13:26:17;0.30;;;0.30;;
11576;SDS011;5844;51.496;6.788;2023-05-07T13:28:43;0.28;;;0.28;;
11576;SDS011;5844;51.496;6.788;2023-05-07T13:31:11;0.20;;;0.20;;
11576;SDS011;5844;51.496;6.788;2023-05-07T13:33:38;0.28;;;0.28;;
11576;SDS011;5844;51.496;6.788;2023-05-07T13:36:06;0.30;;;0.30;;
11576;SDS011;5844;51.496;6.788;2023-05-07T13:38:32;0.20;;;0.20;;
11576;SDS011;5844;51.496;6.788;2023-05-07T13:40:57;0.20;;;0.20;;
11576;SDS011;5844;51.496;6.788;2023-05-07T13:43:24;0.30;;;0.30;;
11576;SDS011;5844;51.496;6.788;2023-05-07T13:45:49;0.20;;;0.20;;
11576;SDS011;5844;51.496;6.788;2023-05-07T13:48:17;0.20;;;0.20;;
11576;SDS011;5844;51.496;6.788;2023-05-07T13:50:42;0.20;;;0.20;;
11576;SDS011;5844;51.496;6.788;2023-05-07T13:53:08;0.20;;;0.20;;
11576;SDS011;5844;51.496;6.788;2023-05-07T13:55:33;0.20;;;0.20;;
11576;SDS011;5844;51.496;6.788;2023-05-07T13:58:00;0.20;;;0.20;;
11576;SDS011;5844;51.496;6.788;2023-05-07T14:00:26;0.32;;;0.32;;
11576;SDS011;5844;51.496;6.788;2023-05-07T14:02:53;0.10;;;0.10;;
11576;SDS011;5844;51.496;6.788;2023-05-07T14:05:20;0.20;;;0.20;;
11576;SDS011;5844;51.496;6.788;2023-05-07T14:07:45;0.10;;;0.10;;
11576;SDS011;5844;51.496;6.788;2023-05-07T14:10:12;0.10;;;0.10;;
11576;SDS011;5844;51.496;6.788;2023-05-07T14:12:38;0.10;;;0.10;;
11576;SDS011;5844;51.496;6.788;2023-05-07T14:15:04;0.10;;;0.10;;
11576;SDS011;5844;51.496;6.788;2023-05-07T14:17:30;0.10;;;0.10;;
11576;SDS011;5844;51.496;6.788;2023-05-07T14:19:55;0.10;;;0.10;;
11576;SDS011;5844;51.496;6.788;2023-05-07T14:22:22;0.10;;;0.10;;
11576;SDS011;5844;51.496;6.788;2023-05-07T14:24:48;0.00;;;0.00;;
11576;SDS011;5844;51.496;6.788;2023-05-07T14:27:14;0.10;;;0.10;;
11576;SDS011;5844;51.496;6.788;2023-05-07T14:29:40;0.10;;;0.10;;
11576;SDS011;5844;51.496;6.788;2023-05-07T14:32:07;0.13;;;0.13;;
11576;SDS011;5844;51.496;6.788;2023-05-07T14:34:33;0.10;;;0.10;;
11576;SDS011;5844;51.496;6.788;2023-05-07T14:36:59;0.10;;;0.10;;
11576;SDS011;5844;51.496;6.788;2023-05-07T14:39:25;0.10;;;0.10;;
11576;SDS011;5844;51.496;6.788;2023-05-07T14:41:51;0.10;;;0.10;;
11576;SDS011;5844;51.496;6.788;2023-05-07T14:44:19;0.10;;;0.10;;
11576;SDS011;5844;51.496;6.788;2023-05-07T14:46:45;0.10;;;0.10;;
11576;SDS011;5844;51.496;6.788;2023-05-07T14:49:11;0.10;;;0.10;;
11576;SDS011;5844;51.496;6.788;2023-05-07T14:51:42;0.10;;;0.10;;
11576;SDS011;5844;51.496;6.788;2023-05-07T14:54:09;0.10;;;0.10;;
11576;SDS011;5844;51.496;6.788;2023-05-07T14:56:35;0.10;;;0.10;;
11576;SDS011;5844;51.496;6.788;2023-05-07T14:59:01;0.10;;;0.10;;
11576;SDS011;5844;51.496;6.788;2023-05-07T15:01:28;0.10;;;0.10;;
11576;SDS011;5844;51.496;6.788;2023-05-07T15:03:53;0.10;;;0.10;;
11576;SDS011;5844;51.496;6.788;2023-05-07T15:06:20;0.10;;;0.10;;
11576;SDS011;5844;51.496;6.788;2023-05-07T15:08:46;0.10;;;0.10;;
11576;SDS011;5844;51.496;6.788;2023-05-07T15:11:13;0.10;;;0.10;;
11576;SDS011;5844;51.496;6.788;2023-05-07T15:13:39;0.10;;;0.10;;
11576;SDS011;5844;51.496;6.788;2023-05-07T15:16:04;0.10;;;0.10;;
11576;SDS011;5844;51.496;6.788;2023-05-07T15:18:30;0.10;;;0.10;;
11576;SDS011;5844;51.496;6.788;2023-05-07T15:20:56;0.10;;;0.10;;
11576;SDS011;5844;51.496;6.788;2023-05-07T15:23:22;0.00;;;0.00;;